createdAt,value
2022-12-29T00:01:22.391Z,99655.88
2022-12-29T00:03:48.978Z,99648.22
2022-12-29T00:06:15.394Z,99641.13
2022-12-29T00:08:42.114Z,99667.03
2022-12-29T00:11:13.258Z,99667.19
2022-12-29T00:13:59.043Z,99661.06
2022-12-29T00:16:25.696Z,99662.31
2022-12-29T00:18:52.367Z,99660.78
2022-12-29T00:21:39.167Z,99654.84
2022-12-29T00:24:24.493Z,99649.88
2022-12-29T00:27:30.518Z,99648.25
2022-12-29T00:30:15.784Z,99628.06
2022-12-29T00:33:00.575Z,99629.13
2022-12-29T00:35:31.414Z,99629.38
2022-12-29T00:38:18.413Z,99618.91
2022-12-29T00:41:03.259Z,99629.03
2022-12-29T00:43:48.401Z,99622.16
2022-12-29T00:46:19.608Z,99623.25
2022-12-29T00:49:04.977Z,99608.44
2022-12-29T00:51:31.259Z,99614.72
2022-12-29T00:53:57.562Z,99613.97
2022-12-29T00:56:23.997Z,99617.97
2022-12-29T00:58:50.533Z,99608.84
2022-12-29T01:01:17.036Z,99613.66
2022-12-29T01:03:44.501Z,99610.41
2022-12-29T01:06:11.607Z,99609.66
2022-12-29T01:08:38.564Z,99597.38
2022-12-29T01:11:10.218Z,99584.13
2022-12-29T01:13:46.813Z,99595.44
2022-12-29T01:16:13.304Z,99580.75
2022-12-29T01:18:40.097Z,99586.72
2022-12-29T01:21:09.864Z,99590.09
2022-12-29T01:23:36.420Z,99590.06
2022-12-29T01:26:10.174Z,99588.56
2022-12-29T01:28:36.661Z,99593.56
2022-12-29T01:31:03.034Z,99591.94
2022-12-29T01:33:29.382Z,99586.06
2022-12-29T01:35:55.884Z,99583.94
2022-12-29T01:38:22.292Z,99574.88
2022-12-29T01:40:48.650Z,99572.94
2022-12-29T01:43:15.929Z,99568.28
2022-12-29T01:45:45.081Z,99566.63
2022-12-29T01:48:12.780Z,99560.06
2022-12-29T01:50:41.604Z,99553.84
2022-12-29T01:53:29.438Z,99556.41
2022-12-29T01:55:58.110Z,99555.78
2022-12-29T01:58:27.916Z,99551.72
2022-12-29T02:00:54.315Z,99559.72
2022-12-29T02:03:22.687Z,99562.44
2022-12-29T02:05:53.704Z,99558.66
2022-12-29T02:08:22.613Z,99550.53
2022-12-29T02:10:49.069Z,99545.28
2022-12-29T02:13:18.550Z,99550.63
2022-12-29T02:15:51.129Z,99553.06
2022-12-29T02:18:17.401Z,99547.88
2022-12-29T02:20:47.666Z,99535.09
2022-12-29T02:23:36.027Z,99546.78
2022-12-29T02:26:19.880Z,99519.69
2022-12-29T02:29:05.395Z,99526.06
2022-12-29T02:31:42.051Z,99527.41
2022-12-29T02:34:31.885Z,99520.19
2022-12-29T02:37:11.360Z,99524.06
2022-12-29T02:39:37.878Z,99525.22
2022-12-29T02:42:10.504Z,99523.66
2022-12-29T02:44:55.956Z,99513.72
2022-12-29T02:47:51.687Z,99505.78
2022-12-29T02:50:22.076Z,99502.28
2022-12-29T02:52:54.016Z,99503.81
2022-12-29T02:55:20.488Z,99502.63
2022-12-29T02:57:47.322Z,99504.22
2022-12-29T03:00:15.245Z,99498.63
2022-12-29T03:02:54.574Z,99499.66
2022-12-29T03:05:34.864Z,99491.47
2022-12-29T03:08:01.426Z,99486.47
2022-12-29T03:10:42.298Z,99483.38
2022-12-29T03:13:36.571Z,99486.41
2022-12-29T03:16:26.163Z,99479.09
2022-12-29T03:19:02.114Z,99486.88
2022-12-29T03:21:52.701Z,99466.34
2022-12-29T03:24:21.503Z,99483.28
2022-12-29T03:26:48.491Z,99478.72
2022-12-29T03:29:16.246Z,99462.59
2022-12-29T03:31:43.563Z,99466.81
2022-12-29T03:34:10.771Z,99458.28
2022-12-29T03:36:43.404Z,99472.63
2022-12-29T03:39:12.883Z,99455.66
2022-12-29T03:41:41.079Z,99457.31
2022-12-29T03:44:07.680Z,99455.75
2022-12-29T03:46:34.296Z,99449.13
2022-12-29T03:49:00.921Z,99449.94
2022-12-29T03:51:27.384Z,99454.72
2022-12-29T03:53:53.870Z,99452.88
2022-12-29T03:56:20.364Z,99445.31
2022-12-29T03:58:46.857Z,99445.91
2022-12-29T04:01:13.167Z,99438.66
2022-12-29T04:03:40.816Z,99436.31
2022-12-29T04:06:08.542Z,99441.78
2022-12-29T04:08:35.002Z,99424.44
2022-12-29T04:11:01.499Z,99412.78
2022-12-29T04:13:28.662Z,99416.50
2022-12-29T04:15:55.041Z,99408.16
2022-12-29T04:18:21.531Z,99414.16
2022-12-29T04:21:04.541Z,99419.00
2022-12-29T04:23:31.794Z,99418.13
2022-12-29T04:25:58.140Z,99409.81
2022-12-29T04:28:24.500Z,99408.38
2022-12-29T04:30:51.068Z,99414.69
2022-12-29T04:33:17.536Z,99417.31
2022-12-29T04:35:45.863Z,99411.72
2022-12-29T04:38:12.237Z,99405.41
2022-12-29T04:40:39.628Z,99412.34
2022-12-29T04:43:06.430Z,99399.94
2022-12-29T04:45:34.015Z,99406.88
2022-12-29T04:48:01.068Z,99387.59
2022-12-29T04:50:27.510Z,99380.09
2022-12-29T04:52:54.170Z,99391.53
2022-12-29T04:55:20.573Z,99395.72
2022-12-29T04:57:47.170Z,99396.44
2022-12-29T05:00:14.559Z,99389.00
2022-12-29T05:02:41.243Z,99382.66
2022-12-29T05:05:08.030Z,99387.81
2022-12-29T05:07:34.907Z,99386.00
2022-12-29T05:10:01.338Z,99372.59
2022-12-29T05:12:30.912Z,99369.63
2022-12-29T05:14:57.554Z,99370.09
2022-12-29T05:17:23.940Z,99376.97
2022-12-29T05:19:50.194Z,99374.28
2022-12-29T05:22:16.687Z,99357.94
2022-12-29T05:24:44.888Z,99359.78
2022-12-29T05:27:11.176Z,99361.13
2022-12-29T05:29:37.502Z,99364.66
2022-12-29T05:32:03.931Z,99362.47
2022-12-29T05:34:30.574Z,99363.47
2022-12-29T05:36:56.931Z,99362.41
2022-12-29T05:39:23.660Z,99369.25
2022-12-29T05:41:50.373Z,99379.56
2022-12-29T05:44:16.927Z,99374.84
2022-12-29T05:46:44.745Z,99377.38
2022-12-29T05:49:11.442Z,99377.63
2022-12-29T05:51:37.779Z,99369.88
2022-12-29T05:54:04.201Z,99377.81
2022-12-29T05:56:30.551Z,99369.19
2022-12-29T05:58:56.983Z,99367.66
2022-12-29T06:01:23.456Z,99364.66
2022-12-29T06:03:50.172Z,99373.72
2022-12-29T06:06:17.213Z,99378.13
2022-12-29T06:08:43.504Z,99373.69
2022-12-29T06:11:10.270Z,99373.19
2022-12-29T06:13:36.765Z,99379.78
2022-12-29T06:16:03.431Z,99376.56
2022-12-29T06:18:29.985Z,99382.44
2022-12-29T06:21:00.542Z,99388.50
2022-12-29T06:23:26.859Z,99394.38
2022-12-29T06:25:53.171Z,99382.78
2022-12-29T06:28:19.456Z,99386.41
2022-12-29T06:30:46.542Z,99391.56
2022-12-29T06:33:13.530Z,99393.34
2022-12-29T06:35:40.804Z,99386.44
2022-12-29T06:38:07.264Z,99382.81
2022-12-29T06:40:33.724Z,99376.53
2022-12-29T06:43:00.131Z,99384.88
2022-12-29T06:45:26.502Z,99376.91
2022-12-29T06:47:52.833Z,99375.22
2022-12-29T06:50:19.275Z,99380.72
2022-12-29T06:52:45.623Z,99381.41
2022-12-29T06:55:11.930Z,99367.41
2022-12-29T06:57:38.227Z,99375.44
2022-12-29T07:00:05.852Z,99375.66
2022-12-29T07:02:32.360Z,99377.06
2022-12-29T07:04:58.865Z,99362.28
2022-12-29T07:07:25.343Z,99358.81
2022-12-29T07:09:51.713Z,99361.59
2022-12-29T07:12:18.051Z,99360.56
2022-12-29T07:14:44.495Z,99369.69
2022-12-29T07:17:11.154Z,99365.91
2022-12-29T07:19:37.755Z,99356.00
2022-12-29T07:22:04.079Z,99359.00
2022-12-29T07:24:30.945Z,99369.75
2022-12-29T07:26:57.422Z,99370.81
2022-12-29T07:29:24.027Z,99371.47
2022-12-29T07:31:50.367Z,99376.72
2022-12-29T07:34:16.787Z,99379.75
2022-12-29T07:36:43.618Z,99388.16
2022-12-29T07:39:10.088Z,99393.28
2022-12-29T07:41:36.366Z,99402.00
2022-12-29T07:44:02.645Z,99402.22
2022-12-29T07:46:56.278Z,99407.09
2022-12-29T07:49:15.344Z,99388.50
2022-12-29T07:51:41.698Z,99395.44
2022-12-29T07:54:08.034Z,99406.81
2022-12-29T07:56:34.375Z,99390.34
2022-12-29T07:59:00.736Z,99386.84
2022-12-29T08:01:27.194Z,99397.53
2022-12-29T08:03:57.345Z,99395.50
2022-12-29T08:06:24.158Z,99406.06
2022-12-29T08:08:50.567Z,99401.28
2022-12-29T08:11:17.082Z,99394.28
2022-12-29T08:13:43.507Z,99403.47
2022-12-29T08:16:09.967Z,99398.56
2022-12-29T08:18:36.560Z,99401.69
2022-12-29T08:21:06.607Z,99400.59
2022-12-29T08:23:32.986Z,99400.78
2022-12-29T08:26:04.031Z,99404.00
2022-12-29T08:28:30.736Z,99408.59
2022-12-29T08:31:01.284Z,99411.75
2022-12-29T08:33:28.010Z,99419.38
2022-12-29T08:36:00.781Z,99433.09
2022-12-29T08:38:27.982Z,99434.81
2022-12-29T08:40:54.633Z,99429.56
2022-12-29T08:43:20.989Z,99435.53
2022-12-29T08:45:47.383Z,99434.28
2022-12-29T08:48:13.813Z,99448.25
2022-12-29T08:50:40.286Z,99448.97
2022-12-29T08:53:06.783Z,99436.97
2022-12-29T08:55:33.158Z,99435.47
2022-12-29T08:57:59.598Z,99438.47
2022-12-29T09:00:26.491Z,99439.16
2022-12-29T09:02:53.217Z,99446.66
2022-12-29T09:05:19.870Z,99431.31
2022-12-29T09:07:46.416Z,99439.38
2022-12-29T09:10:12.986Z,99438.06
2022-12-29T09:12:39.426Z,99440.91
2022-12-29T09:15:06.768Z,99444.88
2022-12-29T09:17:43.380Z,99449.69
2022-12-29T09:20:10.492Z,99451.19
2022-12-29T09:22:37.238Z,99458.06
2022-12-29T09:25:04.052Z,99452.94
2022-12-29T09:27:31.072Z,99460.03
2022-12-29T09:29:57.585Z,99455.72
2022-12-29T09:32:24.952Z,99463.91
2022-12-29T09:34:52.963Z,99473.72
2022-12-29T09:37:19.435Z,99451.09
2022-12-29T09:39:52.133Z,99475.88
2022-12-29T09:42:26.207Z,99449.84
2022-12-29T09:45:01.612Z,99469.91
2022-12-29T09:47:28.727Z,99472.28
2022-12-29T09:49:57.429Z,99480.75
2022-12-29T09:52:26.864Z,99483.75
2022-12-29T09:55:03.828Z,99472.19
2022-12-29T09:57:48.365Z,99479.50
2022-12-29T10:00:17.893Z,99485.56
2022-12-29T10:02:47.473Z,99487.38
2022-12-29T10:05:19.051Z,99485.50
2022-12-29T10:07:51.665Z,99489.34
2022-12-29T10:10:30.387Z,99478.06
2022-12-29T10:13:02.950Z,99476.41
2022-12-29T10:15:48.116Z,99484.31
2022-12-29T10:18:37.676Z,99475.84
2022-12-29T10:21:18.606Z,99489.34
2022-12-29T10:23:52.344Z,99477.66
2022-12-29T10:26:22.698Z,99490.03
2022-12-29T10:28:58.706Z,99480.28
2022-12-29T10:31:28.225Z,99490.25
2022-12-29T10:34:04.248Z,99492.41
2022-12-29T10:36:33.607Z,99479.78
2022-12-29T10:39:14.075Z,99489.34
2022-12-29T10:41:45.659Z,99472.66
2022-12-29T10:44:15.206Z,99485.00
2022-12-29T10:46:41.571Z,99480.00
2022-12-29T10:49:18.025Z,99480.81
2022-12-29T10:51:48.859Z,99478.41
2022-12-29T10:54:21.315Z,99487.97
2022-12-29T10:56:53.061Z,99473.09
2022-12-29T10:59:24.347Z,99482.50
2022-12-29T11:01:57.128Z,99475.59
2022-12-29T11:04:34.394Z,99477.78
2022-12-29T11:07:01.748Z,99468.19
2022-12-29T11:09:48.688Z,99467.56
2022-12-29T11:12:21.477Z,99475.44
2022-12-29T11:14:48.269Z,99474.50
2022-12-29T11:17:19.331Z,99473.53
2022-12-29T11:19:46.151Z,99465.94
2022-12-29T11:22:15.301Z,99476.38
2022-12-29T11:24:46.866Z,99485.03
2022-12-29T11:27:16.703Z,99476.34
2022-12-29T11:29:45.513Z,99482.50
2022-12-29T11:32:14.133Z,99482.59
2022-12-29T11:34:40.907Z,99476.56
2022-12-29T11:37:10.824Z,99475.56
2022-12-29T11:39:57.836Z,99486.41
2022-12-29T11:42:32.003Z,99481.88
2022-12-29T11:45:10.505Z,99462.94
2022-12-29T11:47:37.726Z,99475.03
2022-12-29T11:50:07.488Z,99468.22
2022-12-29T11:52:36.115Z,99469.81
2022-12-29T11:55:05.485Z,99477.09
2022-12-29T11:57:34.547Z,99475.94
2022-12-29T12:00:02.481Z,99481.03
2022-12-29T12:02:47.847Z,99472.50
2022-12-29T12:05:17.886Z,99485.44
2022-12-29T12:07:47.161Z,99483.38
2022-12-29T12:10:19.282Z,99477.25
2022-12-29T12:12:49.595Z,99499.75
2022-12-29T12:15:19.599Z,99494.38
2022-12-29T12:18:03.599Z,99492.38
2022-12-29T12:20:47.062Z,99495.75
2022-12-29T12:23:19.945Z,99502.09
2022-12-29T12:25:51.312Z,99502.00
2022-12-29T12:28:36.311Z,99501.34
2022-12-29T12:31:07.990Z,99490.38
2022-12-29T12:33:43.182Z,99499.13
2022-12-29T12:36:16.440Z,99496.59
2022-12-29T12:38:55.045Z,99491.84
2022-12-29T12:41:40.375Z,99488.44
2022-12-29T12:44:18.937Z,99485.97
2022-12-29T12:47:05.491Z,99497.16
2022-12-29T12:49:41.122Z,99479.03
2022-12-29T12:52:10.555Z,99498.34
2022-12-29T12:54:52.746Z,99502.47
2022-12-29T12:57:37.480Z,99497.09
2022-12-29T13:00:10.287Z,99497.03
2022-12-29T13:02:52.048Z,99499.97
2022-12-29T13:05:51.026Z,99504.44
2022-12-29T13:08:29.396Z,99505.75
2022-12-29T13:11:10.908Z,99491.59
2022-12-29T13:13:40.374Z,99501.06
2022-12-29T13:16:14.629Z,99497.84
2022-12-29T13:19:00.339Z,99502.97
2022-12-29T13:21:35.532Z,99507.31
2022-12-29T13:24:22.062Z,99504.91
2022-12-29T13:26:51.598Z,99521.28
2022-12-29T13:29:21.266Z,99526.50
2022-12-29T13:31:47.732Z,99534.66
2022-12-29T13:34:14.151Z,99534.22
2022-12-29T13:36:45.714Z,99549.66
2022-12-29T13:39:21.297Z,99543.47
2022-12-29T13:41:58.227Z,99548.75
2022-12-29T13:44:28.033Z,99553.00
2022-12-29T13:46:57.314Z,99571.81
2022-12-29T13:49:27.238Z,99574.19
2022-12-29T13:52:05.729Z,99575.75
2022-12-29T13:54:43.841Z,99590.22
2022-12-29T13:57:29.048Z,99590.28
2022-12-29T14:00:00.639Z,99605.53
2022-12-29T14:02:45.951Z,99597.16
2022-12-29T14:05:21.882Z,99604.22
2022-12-29T14:07:49.125Z,99603.75
2022-12-29T14:10:30.043Z,99610.47
2022-12-29T14:13:05.539Z,99612.28
2022-12-29T14:15:32.419Z,99618.63
2022-12-29T14:18:25.231Z,99625.66
2022-12-29T14:20:56.645Z,99628.75
2022-12-29T14:23:35.111Z,99645.94
2022-12-29T14:26:07.459Z,99661.88
2022-12-29T14:28:38.356Z,99658.03
2022-12-29T14:31:05.723Z,99658.72
2022-12-29T14:33:33.845Z,99668.22
2022-12-29T14:36:39.498Z,99673.41
2022-12-29T14:39:25.905Z,99683.13
2022-12-29T14:42:04.193Z,99687.66
2022-12-29T14:44:31.079Z,99697.06
2022-12-29T14:46:57.651Z,99682.69
2022-12-29T14:49:26.550Z,99699.88
2022-12-29T14:51:54.828Z,99702.59
2022-12-29T14:54:39.601Z,99707.69
2022-12-29T14:57:08.357Z,99715.94
2022-12-29T14:59:36.324Z,99711.97
2022-12-29T15:02:06.131Z,99726.00
2022-12-29T15:04:34.135Z,99728.16
2022-12-29T15:07:01.302Z,99732.19
2022-12-29T15:09:34.756Z,99725.34
2022-12-29T15:12:20.496Z,99734.16
2022-12-29T15:14:51.352Z,99731.22
2022-12-29T15:17:23.924Z,99742.19
2022-12-29T15:19:50.341Z,99735.97
2022-12-29T15:22:17.005Z,99739.94
2022-12-29T15:24:44.331Z,99747.09
2022-12-29T15:27:13.949Z,99748.38
2022-12-29T15:29:45.200Z,99763.06
2022-12-29T15:32:22.540Z,99760.31
2022-12-29T15:34:50.781Z,99766.91
2022-12-29T15:37:22.235Z,99771.66
2022-12-29T15:39:50.485Z,99768.69
2022-12-29T15:42:27.888Z,99774.22
2022-12-29T15:44:58.178Z,99785.03
2022-12-29T15:47:35.797Z,99794.78
2022-12-29T15:50:06.996Z,99795.22
2022-12-29T15:52:34.433Z,99800.41
2022-12-29T15:55:02.195Z,99801.56
2022-12-29T15:57:30.678Z,99805.72
2022-12-29T15:59:57.125Z,99800.88
2022-12-29T16:02:24.510Z,99799.78
2022-12-29T16:05:16.614Z,99814.13
2022-12-29T16:07:41.913Z,99807.78
2022-12-29T16:10:25.881Z,99815.66
2022-12-29T16:12:52.328Z,99815.50
2022-12-29T16:15:19.153Z,99825.56
2022-12-29T16:17:51.650Z,99834.19
2022-12-29T16:20:20.320Z,99829.34
2022-12-29T16:22:49.342Z,99827.16
2022-12-29T16:25:27.355Z,99833.38
2022-12-29T16:27:54.181Z,99832.91
2022-12-29T16:30:27.914Z,99837.06
2022-12-29T16:33:01.715Z,99847.00
2022-12-29T16:35:31.982Z,99843.84
2022-12-29T16:38:07.879Z,99836.13
2022-12-29T16:40:34.205Z,99847.75
2022-12-29T16:43:05.174Z,99842.75
2022-12-29T16:45:46.796Z,99846.19
2022-12-29T16:48:16.187Z,99853.31
2022-12-29T16:50:43.807Z,99851.31
2022-12-29T16:53:22.333Z,99864.78
2022-12-29T16:55:49.415Z,99863.81
2022-12-29T16:58:22.382Z,99862.91
2022-12-29T17:00:49.013Z,99886.38
2022-12-29T17:03:16.441Z,99867.47
2022-12-29T17:05:42.927Z,99862.19
2022-12-29T17:08:23.953Z,99866.84
2022-12-29T17:11:14.092Z,99875.31
2022-12-29T17:13:40.630Z,99871.56
2022-12-29T17:16:08.371Z,99866.16
2022-12-29T17:18:35.207Z,99877.78
2022-12-29T17:21:03.016Z,99880.00
2022-12-29T17:23:31.405Z,99879.34
2022-12-29T17:25:58.047Z,99876.19
2022-12-29T17:28:30.541Z,99876.19
2022-12-29T17:31:00.988Z,99879.81
2022-12-29T17:33:28.521Z,99878.44
2022-12-29T17:35:55.868Z,99881.13
2022-12-29T17:38:30.015Z,99879.31
2022-12-29T17:40:56.874Z,99888.19
2022-12-29T17:43:23.474Z,99887.69
2022-12-29T17:45:53.885Z,99889.34
2022-12-29T17:48:20.381Z,99892.25
2022-12-29T17:50:48.081Z,99895.00
2022-12-29T17:53:15.616Z,99892.28
2022-12-29T17:55:41.997Z,99895.31
2022-12-29T17:58:14.975Z,99890.03
2022-12-29T18:00:41.514Z,99895.41
2022-12-29T18:03:09.302Z,99896.38
2022-12-29T18:05:35.769Z,99894.78
2022-12-29T18:08:02.479Z,99897.25
2022-12-29T18:10:30.698Z,99896.16
2022-12-29T18:12:59.408Z,99899.50
2022-12-29T18:15:27.343Z,99893.44
2022-12-29T18:18:10.147Z,99894.78
2022-12-29T18:20:36.716Z,99899.63
2022-12-29T18:23:03.215Z,99901.00
2022-12-29T18:25:35.616Z,99896.53
2022-12-29T18:28:02.008Z,99896.34
2022-12-29T18:30:28.632Z,99892.50
2022-12-29T18:32:55.493Z,99900.66
2022-12-29T18:35:42.714Z,99904.03
2022-12-29T18:38:09.139Z,99907.09
2022-12-29T18:40:36.549Z,99907.09
2022-12-29T18:43:03.179Z,99917.13
2022-12-29T18:45:31.413Z,99906.41
2022-12-29T18:47:58.357Z,99917.81
2022-12-29T18:50:24.820Z,99919.44
2022-12-29T18:52:51.513Z,99904.44
2022-12-29T18:55:20.755Z,99904.94
2022-12-29T18:57:48.679Z,99899.22
2022-12-29T19:00:17.042Z,99905.91
2022-12-29T19:02:43.976Z,99906.97
2022-12-29T19:05:19.557Z,99902.91
2022-12-29T19:07:48.036Z,99902.75
2022-12-29T19:10:14.773Z,99892.75
2022-12-29T19:12:41.385Z,99899.13
2022-12-29T19:15:13.525Z,99890.00
2022-12-29T19:17:39.955Z,99891.25
2022-12-29T19:20:07.217Z,99882.69
2022-12-29T19:22:33.553Z,99892.53
2022-12-29T19:25:00.485Z,99883.28
2022-12-29T19:27:27.257Z,99885.03
2022-12-29T19:29:53.601Z,99891.16
2022-12-29T19:32:20.075Z,99896.47
2022-12-29T19:34:48.721Z,99883.53
2022-12-29T19:37:15.175Z,99887.75
2022-12-29T19:39:41.649Z,99882.78
2022-12-29T19:42:08.098Z,99871.78
2022-12-29T19:44:34.662Z,99879.84
2022-12-29T19:47:01.165Z,99890.66
2022-12-29T19:49:27.849Z,99890.19
2022-12-29T19:51:55.291Z,99890.84
2022-12-29T19:54:22.001Z,99887.47
2022-12-29T19:56:50.612Z,99877.66
2022-12-29T19:59:17.689Z,99870.84
2022-12-29T20:01:44.518Z,99882.97
2022-12-29T20:04:13.312Z,99885.28
2022-12-29T20:06:39.724Z,99866.44
2022-12-29T20:09:06.397Z,99888.03
2022-12-29T20:11:34.060Z,99903.38
2022-12-29T20:14:02.249Z,99895.94
2022-12-29T20:16:31.108Z,99906.31
2022-12-29T20:18:57.783Z,99925.41
2022-12-29T20:21:24.595Z,99961.31
2022-12-29T20:23:52.680Z,99928.13
2022-12-29T20:26:21.169Z,99933.44
2022-12-29T20:28:48.163Z,99940.03
2022-12-29T20:31:19.502Z,99932.53
2022-12-29T20:33:46.617Z,99944.13
2022-12-29T20:36:24.635Z,99939.59
2022-12-29T20:38:51.717Z,99938.88
2022-12-29T20:41:18.249Z,99949.47
2022-12-29T20:43:46.225Z,99953.09
2022-12-29T20:46:18.159Z,99965.75
2022-12-29T20:48:47.785Z,99958.47
2022-12-29T20:51:15.070Z,99961.63
2022-12-29T20:53:41.775Z,99965.34
2022-12-29T20:56:11.551Z,99975.19
2022-12-29T20:59:00.304Z,99964.41
2022-12-29T21:01:25.252Z,99969.84
2022-12-29T21:03:51.804Z,99967.53
2022-12-29T21:06:23.004Z,99962.88
2022-12-29T21:08:50.400Z,99964.28
2022-12-29T21:11:22.364Z,99963.47
2022-12-29T21:13:49.804Z,99970.03
2022-12-29T21:16:18.799Z,99972.69
2022-12-29T21:18:46.155Z,99979.44
2022-12-29T21:21:15.504Z,99974.50
2022-12-29T21:23:42.103Z,99981.16
2022-12-29T21:26:24.397Z,99980.53
2022-12-29T21:28:51.509Z,99988.81
2022-12-29T21:31:24.325Z,99989.16
2022-12-29T21:33:51.514Z,99996.88
2022-12-29T21:36:27.012Z,99992.97
2022-12-29T21:38:53.973Z,100002.66
2022-12-29T21:41:21.922Z,99997.03
2022-12-29T21:44:08.374Z,100008.59
2022-12-29T21:46:37.556Z,100012.59
2022-12-29T21:49:04.987Z,100012.03
2022-12-29T21:51:50.422Z,100013.50
2022-12-29T21:54:38.229Z,100007.41
2022-12-29T21:57:05.379Z,100004.66
2022-12-29T21:59:50.860Z,100006.47
2022-12-29T22:02:43.456Z,100011.41
2022-12-29T22:05:30.391Z,100019.94
2022-12-29T22:08:15.409Z,100019.53
2022-12-29T22:11:02.708Z,100015.91
2022-12-29T22:13:33.444Z,100028.34
2022-12-29T22:16:00.302Z,100024.88
2022-12-29T22:18:27.564Z,100029.34
2022-12-29T22:20:54.807Z,100031.03
2022-12-29T22:23:25.552Z,100025.38
2022-12-29T22:25:52.541Z,100019.16
2022-12-29T22:28:19.940Z,100022.22
2022-12-29T22:30:47.095Z,100026.66
2022-12-29T22:33:14.120Z,100034.38
2022-12-29T22:35:41.443Z,100036.31
2022-12-29T22:38:08.447Z,100042.84
2022-12-29T22:40:36.095Z,100043.38
2022-12-29T22:43:07.993Z,100039.56
2022-12-29T22:45:38.953Z,100046.47
2022-12-29T22:48:05.969Z,100037.81
2022-12-29T22:50:33.178Z,100049.88
2022-12-29T22:52:59.968Z,100047.44
2022-12-29T22:55:26.648Z,100053.06
2022-12-29T22:57:55.581Z,100058.91
2022-12-29T23:00:22.609Z,100056.66
2022-12-29T23:02:49.478Z,100065.19
2022-12-29T23:05:16.306Z,100068.34
2022-12-29T23:07:43.531Z,100071.63
2022-12-29T23:10:10.107Z,100066.97
2022-12-29T23:12:36.595Z,100075.41
2022-12-29T23:15:03.081Z,100071.53
2022-12-29T23:17:29.973Z,100080.59
2022-12-29T23:19:56.353Z,100077.13
2022-12-29T23:22:23.314Z,100084.88
2022-12-29T23:24:49.622Z,100089.78
2022-12-29T23:27:15.959Z,100099.34
2022-12-29T23:29:42.454Z,100098.44
2022-12-29T23:32:08.982Z,100095.63
2022-12-29T23:34:35.301Z,100093.31
2022-12-29T23:37:01.882Z,100101.84
2022-12-29T23:39:29.192Z,100097.34
2022-12-29T23:41:55.550Z,100093.84
2022-12-29T23:44:21.975Z,100098.94
2022-12-29T23:46:48.579Z,100110.94
2022-12-29T23:49:15.152Z,100115.69
2022-12-29T23:51:42.005Z,100120.66
2022-12-29T23:54:08.398Z,100134.16
2022-12-29T23:56:34.697Z,100129.94
2022-12-29T23:59:03.431Z,100130.28
